Time;durP1;ratioP1;P1;durP2;ratioP2;P2;SDS_P1;SDS_P2;PMS_P1;PMS_P2;Temp;Humidity;BMP_temperature;BMP_pressure;BME280_temperature;BME280_humidity;BME280_pressure;Samples;Min_cycle;Max_cycle;Signal;HPM_P1;HPM_P2
2021/11/09 00:00:17;;;;;;;4.50;3.97;;;0.70;99.90;;;;;;4952734;28;20906;-77
2021/11/09 00:02:44;;;;;;;11.73;5.30;;;0.70;99.90;;;;;;4952538;28;20996;-77
2021/11/09 00:05:12;;;;;;;14.43;4.70;;;0.60;99.90;;;;;;4954517;28;20570;-77
2021/11/09 00:10:08;;;;;;;15.30;5.60;;;0.60;99.90;;;;;;4956600;29;20436;-77
2021/11/09 00:12:44;;;;;;;7.30;4.20;;;0.60;99.90;;;;;;4956209;28;20447;-77
2021/11/09 00:15:13;;;;;;;13.73;5.20;;;0.50;99.90;;;;;;4956367;29;20393;-77
2021/11/09 00:17:39;;;;;;;12.27;5.80;;;0.50;99.90;;;;;;4956352;29;20426;-77
2021/11/09 00:20:08;;;;;;;11.23;4.83;;;0.50;99.90;;;;;;4956304;28;20453;-77
2021/11/09 00:22:34;;;;;;;9.73;4.27;;;0.50;99.90;;;;;;4955759;29;20952;-77
2021/11/09 00:24:59;;;;;;;9.67;5.43;;;0.50;99.90;;;;;;4956263;29;20430;-77
2021/11/09 00:27:25;;;;;;;6.87;4.17;;;0.50;99.90;;;;;;4955893;28;20173;-77
2021/11/09 00:29:51;;;;;;;14.73;5.87;;;0.50;99.90;;;;;;4956222;29;20181;-77
2021/11/09 00:32:18;;;;;;;17.30;6.67;;;0.50;99.90;;;;;;4955256;28;20222;-77
2021/11/09 00:34:44;;;;;;;15.57;6.17;;;0.40;99.90;;;;;;4956441;28;20472;-77
2021/11/09 00:37:11;;;;;;;17.33;6.23;;;0.40;99.90;;;;;;4955844;29;20424;-77
2021/11/09 00:39:37;;;;;;;16.23;6.73;;;0.40;99.90;;;;;;4955952;29;20466;-77
2021/11/09 00:42:03;;;;;;;10.60;5.27;;;0.40;99.90;;;;;;4954254;29;20441;-77
2021/11/09 00:44:29;;;;;;;13.33;5.57;;;0.30;99.90;;;;;;4955625;29;20439;-77
2021/11/09 00:46:55;;;;;;;8.80;4.37;;;0.30;99.90;;;;;;4955804;28;20935;-77
2021/11/09 00:49:22;;;;;;;7.07;4.70;;;0.30;99.90;;;;;;4955668;28;20501;-77
2021/11/09 00:51:49;;;;;;;11.00;5.20;;;0.30;99.90;;;;;;4955795;28;20561;-77
2021/11/09 00:54:16;;;;;;;13.40;5.07;;;0.30;99.90;;;;;;4955521;29;20404;-77
2021/11/09 00:56:42;;;;;;;7.43;5.20;;;0.30;99.90;;;;;;4956011;28;20774;-77
2021/11/09 00:59:08;;;;;;;10.83;4.47;;;0.20;99.90;;;;;;4955907;28;20476;-77
2021/11/09 05:30:51;;;;;;;12.30;7.83;;;0.10;99.90;;;;;;6035465;23;21185;-71
2021/11/09 05:33:18;;;;;;;12.10;6.93;;;0.10;99.90;;;;;;4958002;28;20439;-72
2021/11/09 05:35:45;;;;;;;16.43;7.80;;;0.00;99.90;;;;;;4971283;28;20412;-73
2021/11/09 05:38:13;;;;;;;9.40;6.90;;;0.00;99.90;;;;;;4974754;28;20405;-73
2021/11/09 05:40:41;;;;;;;18.30;7.37;;;0.00;99.90;;;;;;4974608;28;20401;-72
2021/11/09 05:43:08;;;;;;;8.63;7.33;;;-0.10;99.90;;;;;;4965160;28;20425;-73
2021/11/09 05:45:34;;;;;;;15.77;7.27;;;0.00;99.90;;;;;;4946725;29;20425;-72
2021/11/09 05:48:00;;;;;;;10.33;7.03;;;0.00;99.90;;;;;;4955005;29;20781;-72
2021/11/09 05:50:27;;;;;;;9.63;6.53;;;-0.10;99.90;;;;;;4955429;28;20409;-73
2021/11/09 05:52:52;;;;;;;13.27;7.20;;;-0.10;99.90;;;;;;4954763;28;20443;-73
2021/11/09 05:55:18;;;;;;;16.90;7.20;;;-0.10;99.90;;;;;;4955376;29;20921;-73
2021/11/09 05:57:44;;;;;;;11.23;7.43;;;-0.10;99.90;;;;;;4954841;29;20237;-72
2021/11/09 06:00:11;;;;;;;15.87;8.97;;;-0.10;99.90;;;;;;4954865;28;20431;-72
2021/11/09 06:02:37;;;;;;;15.97;7.80;;;-0.20;99.90;;;;;;4954617;28;20469;-73
2021/11/09 06:05:04;;;;;;;12.93;7.07;;;-0.20;99.90;;;;;;4956219;29;20494;-72
2021/11/09 06:07:29;;;;;;;14.63;7.60;;;-0.20;99.90;;;;;;4955809;28;20564;-73
2021/11/09 06:09:55;;;;;;;12.40;6.30;;;-0.20;99.90;;;;;;4954969;29;20427;-73
2021/11/09 06:12:21;;;;;;;14.00;7.57;;;-0.20;99.90;;;;;;4955411;28;20221;-71
2021/11/09 06:14:46;;;;;;;17.60;7.80;;;-0.20;99.90;;;;;;4950872;28;20257;-71
2021/11/09 06:17:12;;;;;;;14.20;6.60;;;-0.10;99.90;;;;;;4935922;29;20226;-71
2021/11/09 06:19:37;;;;;;;19.97;7.80;;;-0.10;99.90;;;;;;4933888;29;20571;-69
2021/11/09 06:22:03;;;;;;;15.57;6.70;;;-0.10;99.90;;;;;;4933698;29;20222;-68
2021/11/09 06:24:29;;;;;;;11.47;7.50;;;-0.10;99.90;;;;;;4934745;29;20199;-69
2021/11/09 06:26:55;;;;;;;13.07;6.70;;;-0.10;99.90;;;;;;4935300;29;20424;-69
2021/11/09 06:29:20;;;;;;;10.33;6.60;;;0.00;99.90;;;;;;4935337;29;20542;-69
2021/11/09 06:31:46;;;;;;;8.53;7.10;;;0.00;99.90;;;;;;4935066;29;20209;-69
2021/11/09 06:34:13;;;;;;;17.23;7.50;;;0.00;99.90;;;;;;4935162;29;20213;-69
2021/11/09 06:36:38;;;;;;;17.63;7.77;;;0.00;99.90;;;;;;4934957;29;20422;-69
2021/11/09 06:39:04;;;;;;;16.47;7.60;;;0.00;99.90;;;;;;4935069;29;20183;-71
2021/11/09 06:41:30;;;;;;;10.73;6.40;;;0.00;99.90;;;;;;4934928;29;20253;-71
2021/11/09 06:43:56;;;;;;;20.27;8.80;;;0.10;99.90;;;;;;4934824;29;20622;-71
2021/11/09 06:46:21;;;;;;;11.17;7.80;;;0.00;99.90;;;;;;4935089;29;20235;-71
2021/11/09 06:48:47;;;;;;;12.23;6.00;;;0.10;99.90;;;;;;4935194;29;20854;-71
2021/11/09 06:51:13;;;;;;;14.30;7.07;;;0.10;99.90;;;;;;4935048;29;20316;-70
2021/11/09 06:53:39;;;;;;;16.47;5.90;;;0.10;99.90;;;;;;4934479;29;20888;-70
2021/11/09 06:56:05;;;;;;;12.50;6.27;;;0.10;99.90;;;;;;4934957;29;20445;-71
2021/11/09 06:58:31;;;;;;;9.50;6.20;;;0.20;99.90;;;;;;4934640;29;20448;-69
2021/11/09 07:00:57;;;;;;;11.80;6.40;;;0.20;99.90;;;;;;4942180;29;21652;-70
2021/11/09 07:03:23;;;;;;;17.13;6.70;;;0.30;99.90;;;;;;4944397;29;20423;-71
2021/11/09 07:05:49;;;;;;;11.00;6.00;;;0.40;99.90;;;;;;4946123;29;20181;-71
2021/11/09 07:08:14;;;;;;;19.53;6.87;;;0.50;99.90;;;;;;4953887;28;20252;-70
2021/11/09 07:10:40;;;;;;;12.30;6.60;;;0.50;99.90;;;;;;4953592;29;20815;-71
2021/11/09 07:13:05;;;;;;;17.50;7.00;;;0.60;99.90;;;;;;4953497;28;20172;-71
2021/11/09 07:15:31;;;;;;;13.10;6.30;;;0.70;99.90;;;;;;4953291;29;20180;-72
2021/11/09 07:17:56;;;;;;;8.93;5.50;;;0.80;99.90;;;;;;4953739;29;20181;-71
2021/11/09 07:20:22;;;;;;;8.97;5.27;;;1.10;99.90;;;;;;4953660;28;20229;-72
2021/11/09 07:22:49;;;;;;;11.00;5.60;;;1.30;99.90;;;;;;4952561;28;20206;-70
2021/11/09 07:25:17;;;;;;;13.67;4.83;;;1.70;99.90;;;;;;4967835;28;20473;-71
2021/11/09 07:27:43;;;;;;;9.70;5.33;;;1.90;99.90;;;;;;4972964;28;20416;-71
2021/11/09 07:30:11;;;;;;;7.97;5.00;;;2.10;99.90;;;;;;4972973;28;20555;-71
2021/11/09 07:32:37;;;;;;;12.80;5.60;;;2.20;99.90;;;;;;4972310;28;20534;-71
2021/11/09 07:35:08;;;;;;;12.70;5.33;;;2.50;99.90;;;;;;4971701;28;20401;-71
2021/11/09 07:37:34;;;;;;;10.10;5.37;;;2.60;99.90;;;;;;4972749;28;20395;-71
2021/11/09 07:40:00;;;;;;;8.07;4.90;;;2.90;99.90;;;;;;4972860;28;20871;-71
2021/11/09 07:42:26;;;;;;;11.27;4.97;;;3.10;99.90;;;;;;4972481;28;20523;-71
2021/11/09 07:44:53;;;;;;;8.50;5.37;;;3.20;99.90;;;;;;4972680;28;20677;-71
2021/11/09 07:47:19;;;;;;;13.43;5.33;;;3.40;99.90;;;;;;4962385;28;20422;-71
2021/11/09 07:49:45;;;;;;;8.13;5.10;;;3.60;99.90;;;;;;4949360;29;20569;-71
2021/11/09 07:52:12;;;;;;;6.43;4.60;;;3.80;99.90;;;;;;4933910;29;20421;-70
2021/11/09 07:54:40;;;;;;;8.90;5.43;;;4.10;99.90;;;;;;4934237;29;20984;-71
2021/11/09 07:57:10;;;;;;;9.27;5.70;;;4.10;99.90;;;;;;4932617;29;20448;-71
2021/11/09 07:59:53;;;;;;;8.37;4.70;;;4.20;99.90;;;;;;4932414;29;20451;-71
2021/11/09 08:02:44;;;;;;;9.50;5.37;;;4.40;99.90;;;;;;4932556;29;20470;-71
2021/11/09 08:05:10;;;;;;;9.60;5.20;;;4.50;99.90;;;;;;4932458;29;20953;-71
2021/11/09 08:07:49;;;;;;;9.93;5.63;;;4.50;99.90;;;;;;4932571;29;20454;-71
2021/11/09 08:10:14;;;;;;;9.47;6.33;;;4.50;99.90;;;;;;4933195;29;20420;-71
2021/11/09 08:12:40;;;;;;;11.20;6.60;;;4.70;99.90;;;;;;4933918;29;20432;-72
2021/11/09 08:15:06;;;;;;;11.33;6.13;;;4.80;99.90;;;;;;4934065;29;20218;-71
2021/11/09 08:17:32;;;;;;;8.93;6.53;;;4.90;99.90;;;;;;4934151;29;20195;-71
2021/11/09 08:19:57;;;;;;;11.43;6.77;;;5.00;99.90;;;;;;4933992;29;20185;-71
2021/11/09 08:22:24;;;;;;;15.60;7.70;;;5.10;99.90;;;;;;4933693;29;20231;-71
2021/11/09 08:24:49;;;;;;;11.87;8.07;;;5.20;99.90;;;;;;4934001;29;20207;-71
2021/11/09 08:27:15;;;;;;;10.80;7.80;;;5.20;99.90;;;;;;4937766;29;20768;-71
2021/11/09 08:29:48;;;;;;;14.00;8.47;;;5.40;99.90;;;;;;4937580;29;20528;-72
2021/11/09 08:32:14;;;;;;;15.03;8.70;;;5.50;99.90;;;;;;4937197;29;20618;-72
2021/11/09 08:34:39;;;;;;;14.33;8.67;;;5.70;99.90;;;;;;4937586;29;20442;-72
2021/11/09 08:37:05;;;;;;;22.07;8.00;;;5.80;99.90;;;;;;4937283;29;20186;-71
2021/11/09 08:39:36;;;;;;;15.50;9.30;;;6.00;99.90;;;;;;4942423;29;20718;-71
2021/11/09 08:44:51;;;;;;;17.70;9.10;;;6.20;99.90;;;;;;4937494;29;20481;-72
2021/11/09 08:47:23;;;;;;;13.23;8.27;;;6.50;99.90;;;;;;4937362;29;20417;-72
2021/11/09 08:49:50;;;;;;;11.30;8.23;;;6.70;99.90;;;;;;4937266;29;20424;-71
2021/11/09 08:52:17;;;;;;;18.30;9.30;;;7.00;99.90;;;;;;4936955;29;20812;-72
2021/11/09 08:57:45;;;;;;;15.73;8.57;;;7.70;99.90;;;;;;4937189;29;20432;-71
2021/11/09 09:05:26;;;;;;;17.30;8.70;;;8.70;99.90;;;;;;4937050;29;21076;-71
2021/11/09 09:07:52;;;;;;;14.50;9.40;;;9.20;99.90;;;;;;4936725;29;20415;-72
2021/11/09 09:10:18;;;;;;;12.47;7.83;;;9.40;99.90;;;;;;4937173;29;20421;-71
2021/11/09 09:12:45;;;;;;;13.53;7.80;;;9.60;99.90;;;;;;4936585;29;20442;-71
2021/11/09 09:15:14;;;;;;;12.80;8.30;;;10.00;99.90;;;;;;4936684;29;20914;-69
2021/11/09 09:17:40;;;;;;;12.43;8.50;;;9.90;99.90;;;;;;4936426;29;20494;-69
2021/11/09 09:20:14;;;;;;;16.93;7.30;;;10.00;99.90;;;;;;4936497;29;20423;-69
2021/11/09 09:22:44;;;;;;;13.10;8.97;;;10.20;99.90;;;;;;4936357;29;20467;-70
2021/11/09 09:25:25;;;;;;;7.83;7.10;;;10.30;99.90;;;;;;4936393;29;20495;-69
2021/11/09 09:28:18;;;;;;;8.60;5.33;;;10.30;99.90;;;;;;4936373;29;20404;-70
2021/11/09 09:33:32;;;;;;;8.03;5.73;;;10.60;99.90;;;;;;4936113;29;20434;-69
2021/11/09 09:55:02;;;;;;;13.77;6.63;;;11.40;99.90;;;;;;4936367;29;20419;-71
2021/11/09 09:57:29;;;;;;;10.13;6.40;;;11.50;99.90;;;;;;4935780;29;20429;-70
2021/11/09 09:59:55;;;;;;;12.23;6.63;;;11.80;99.90;;;;;;4935931;29;20413;-70
2021/11/09 10:02:25;;;;;;;6.80;5.90;;;11.90;99.90;;;;;;4935270;29;20445;-68
2021/11/09 10:04:53;;;;;;;6.77;5.67;;;11.40;99.90;;;;;;4934513;29;20471;-70
2021/11/09 10:07:51;;;;;;;13.33;5.83;;;11.40;99.90;;;;;;4935641;29;20415;-70
2021/11/09 10:10:23;;;;;;;11.40;6.20;;;11.60;99.90;;;;;;4935787;29;20477;-69
2021/11/09 10:13:13;;;;;;;8.63;4.60;;;11.80;99.90;;;;;;4945325;29;20441;-70
2021/11/09 10:15:53;;;;;;;5.93;5.43;;;11.90;99.90;;;;;;4944575;28;20454;-69
2021/11/09 10:18:21;;;;;;;8.70;6.20;;;12.30;99.90;;;;;;4954657;28;20789;-70
2021/11/09 10:20:51;;;;;;;8.73;4.90;;;12.30;99.90;;;;;;4954772;28;20415;-70
2021/11/09 10:23:23;;;;;;;10.60;5.40;;;11.80;99.90;;;;;;4954390;28;20424;-70
2021/11/09 10:25:51;;;;;;;9.83;5.10;;;11.60;99.90;;;;;;4954631;28;20911;-72
2021/11/09 10:28:23;;;;;;;7.33;4.93;;;11.90;99.90;;;;;;4954621;28;20495;-71
2021/11/09 10:30:54;;;;;;;9.93;4.27;;;11.90;99.90;;;;;;4950724;28;20526;-70
2021/11/09 10:33:23;;;;;;;6.83;4.80;;;11.90;99.90;;;;;;4952667;29;20424;-70
2021/11/09 10:35:48;;;;;;;11.23;5.03;;;12.00;99.90;;;;;;4954358;28;20937;-70
2021/11/09 10:38:14;;;;;;;8.23;5.10;;;11.80;99.90;;;;;;4954362;28;20536;-71
2021/11/09 10:40:51;;;;;;;11.97;5.40;;;11.60;99.90;;;;;;4954296;28;20180;-71
2021/11/09 10:43:22;;;;;;;4.27;3.47;;;11.60;99.90;;;;;;4946072;28;20508;-71
2021/11/09 10:45:48;;;;;;;9.30;4.43;;;11.50;99.90;;;;;;4950678;29;20443;-70
2021/11/09 10:48:19;;;;;;;9.00;3.13;;;11.40;99.90;;;;;;4954075;28;20973;-71
2021/11/09 10:50:47;;;;;;;11.47;4.07;;;11.30;99.90;;;;;;4954055;28;20512;-70
2021/11/09 10:53:21;;;;;;;5.50;4.57;;;11.30;99.90;;;;;;4953842;28;20470;-70
2021/11/09 11:06:19;;;;;;;7.53;3.10;;;11.10;99.90;;;;;;4953980;28;20415;-70
2021/11/09 11:08:47;;;;;;;6.33;3.70;;;11.00;99.90;;;;;;4953779;28;20833;-71
2021/11/09 11:11:18;;;;;;;5.30;2.93;;;10.90;99.90;;;;;;4953799;28;20439;-70
2021/11/09 11:13:44;;;;;;;6.90;4.43;;;11.00;99.90;;;;;;4953316;28;21207;-70
2021/11/09 11:16:13;;;;;;;6.03;2.97;;;10.90;99.90;;;;;;4953918;29;20426;-70
2021/11/09 11:18:45;;;;;;;10.83;3.13;;;10.90;99.90;;;;;;4952787;28;20422;-69
2021/11/09 11:21:15;;;;;;;5.73;3.10;;;10.90;99.90;;;;;;4953848;28;20810;-70
2021/11/09 11:23:42;;;;;;;6.17;2.93;;;11.10;99.90;;;;;;4953171;28;20502;-70
2021/11/09 11:26:09;;;;;;;7.37;2.60;;;11.20;99.90;;;;;;4953683;28;20789;-71
2021/11/09 11:28:36;;;;;;;4.43;3.03;;;11.40;99.90;;;;;;4953476;28;20815;-70
2021/11/09 11:31:03;;;;;;;5.70;2.80;;;11.50;99.90;;;;;;4953197;28;20497;-71
2021/11/09 11:33:29;;;;;;;4.33;3.20;;;11.50;99.90;;;;;;4953111;28;20510;-70
2021/11/09 11:35:54;;;;;;;13.67;4.60;;;11.50;99.90;;;;;;4953986;29;20925;-70
2021/11/09 11:38:21;;;;;;;6.67;3.93;;;11.60;99.90;;;;;;4953934;29;20315;-70
2021/11/09 11:40:49;;;;;;;7.33;3.93;;;11.50;99.90;;;;;;4953521;28;20176;-70
2021/11/09 11:43:34;;;;;;;6.43;2.97;;;11.40;99.90;;;;;;4953225;28;20413;-70
2021/11/09 11:46:00;;;;;;;7.63;3.40;;;11.60;99.90;;;;;;4953659;28;20438;-70
2021/11/09 11:48:25;;;;;;;5.00;3.30;;;11.50;99.90;;;;;;4953191;29;20788;-70
2021/11/09 11:50:51;;;;;;;9.77;4.03;;;11.40;99.90;;;;;;4953067;28;20188;-71
2021/11/09 11:53:41;;;;;;;8.60;3.20;;;11.50;99.90;;;;;;4953057;28;20252;-70
2021/11/09 11:56:09;;;;;;;5.03;3.17;;;11.50;99.90;;;;;;4953397;28;20939;-71
2021/11/09 11:58:34;;;;;;;3.63;2.67;;;11.40;99.90;;;;;;4953096;28;20479;-70
2021/11/09 12:01:00;;;;;;;5.20;3.30;;;11.40;99.90;;;;;;4955187;28;20436;-71
2021/11/09 12:03:25;;;;;;;6.30;3.20;;;11.30;99.90;;;;;;4956658;29;20583;-71
2021/11/09 12:05:53;;;;;;;5.73;4.00;;;11.40;99.90;;;;;;4957159;28;20276;-70
2021/11/09 12:08:37;;;;;;;12.33;4.27;;;11.30;99.90;;;;;;4956872;28;20669;-71
2021/11/09 12:11:05;;;;;;;4.10;2.60;;;11.30;99.90;;;;;;4957281;28;20462;-71
2021/11/09 12:13:54;;;;;;;5.60;2.77;;;11.10;99.90;;;;;;4956855;28;20442;-70
2021/11/09 12:16:43;;;;;;;10.03;3.10;;;11.10;99.90;;;;;;4956965;28;20412;-71
2021/11/09 12:19:28;;;;;;;6.23;2.80;;;11.10;99.90;;;;;;4957095;28;20411;-71
2021/11/09 12:22:15;;;;;;;7.33;2.80;;;11.20;99.90;;;;;;4956887;28;20449;-70
2021/11/09 12:24:52;;;;;;;4.63;2.33;;;11.20;99.90;;;;;;4971330;28;20474;-70
2021/11/09 12:27:29;;;;;;;4.80;2.27;;;11.10;99.90;;;;;;4956547;28;20407;-71
2021/11/09 12:29:55;;;;;;;7.53;2.30;;;11.00;99.90;;;;;;4971450;28;20527;-71
2021/11/09 12:32:21;;;;;;;5.10;2.80;;;10.80;99.90;;;;;;4956135;28;20494;-68
2021/11/09 12:35:03;;;;;;;4.27;2.57;;;10.80;99.90;;;;;;4956547;28;20427;-70
2021/11/09 12:37:39;;;;;;;8.27;2.33;;;10.80;99.90;;;;;;4956578;28;20180;-71
2021/11/09 12:40:30;;;;;;;6.03;2.70;;;11.00;99.90;;;;;;4956591;28;20781;-71
2021/11/09 12:43:08;;;;;;;6.33;2.40;;;11.00;99.90;;;;;;4956335;28;20772;-71
2021/11/09 12:45:37;;;;;;;4.23;2.53;;;11.00;99.90;;;;;;4956273;29;20494;-71
2021/11/09 12:48:05;;;;;;;4.93;2.90;;;11.10;99.90;;;;;;4956430;28;20450;-72
2021/11/09 12:50:32;;;;;;;3.53;3.07;;;11.10;99.90;;;;;;4956401;28;20412;-72
2021/11/09 12:53:11;;;;;;;5.50;3.47;;;11.00;99.90;;;;;;4956118;28;20443;-71
2021/11/09 12:55:38;;;;;;;5.47;2.10;;;11.10;99.90;;;;;;4956406;28;20793;-71
2021/11/09 12:58:16;;;;;;;7.10;3.13;;;11.00;99.90;;;;;;4956475;28;20415;-71
2021/11/09 13:00:49;;;;;;;5.00;2.37;;;11.10;99.90;;;;;;4956275;28;20962;-71
2021/11/09 13:03:31;;;;;;;4.60;2.13;;;11.00;99.90;;;;;;4956088;28;20417;-71
2021/11/09 13:06:05;;;;;;;10.23;3.67;;;10.90;99.90;;;;;;4955095;28;20424;-72
2021/11/09 13:08:42;;;;;;;7.37;1.73;;;10.90;99.90;;;;;;4956048;28;20415;-71
2021/11/09 13:11:37;;;;;;;4.83;1.90;;;11.00;99.90;;;;;;4955888;28;21015;-70
2021/11/09 13:14:05;;;;;;;6.00;2.43;;;10.90;99.90;;;;;;4955582;28;20417;-70
2021/11/09 13:16:30;;;;;;;4.30;2.53;;;10.90;99.90;;;;;;4955533;28;20423;-71
2021/11/09 13:19:05;;;;;;;5.03;2.00;;;10.90;99.90;;;;;;4956056;29;20411;-70
2021/11/09 13:21:32;;;;;;;4.17;2.73;;;10.90;99.90;;;;;;4955877;28;20535;-71
2021/11/09 13:23:57;;;;;;;5.03;2.20;;;10.90;99.90;;;;;;4955447;28;20546;-71
2021/11/09 13:26:23;;;;;;;7.53;2.27;;;10.90;99.90;;;;;;4955670;29;21035;-71
2021/11/09 13:28:48;;;;;;;7.20;2.40;;;10.90;99.90;;;;;;4955887;29;20183;-72
2021/11/09 13:31:15;;;;;;;7.83;2.50;;;11.00;99.90;;;;;;4956167;28;20210;-70
2021/11/09 13:33:45;;;;;;;3.80;2.40;;;10.90;99.90;;;;;;4955259;28;20171;-71
2021/11/09 13:36:11;;;;;;;3.70;2.60;;;10.80;99.90;;;;;;4955122;28;20428;-71
2021/11/09 13:38:39;;;;;;;4.60;2.33;;;10.80;99.90;;;;;;4954422;28;20425;-71
2021/11/09 13:41:22;;;;;;;3.20;2.07;;;10.80;99.90;;;;;;4954680;28;20199;-70
2021/11/09 13:44:10;;;;;;;5.00;2.73;;;10.70;99.90;;;;;;4955136;28;20466;-71
2021/11/09 13:46:39;;;;;;;8.93;2.10;;;10.80;99.90;;;;;;4955320;28;20464;-71
2021/11/09 13:49:07;;;;;;;7.07;3.07;;;10.70;99.90;;;;;;4955355;28;20431;-70
2021/11/09 13:51:39;;;;;;;5.43;2.63;;;10.70;99.90;;;;;;4955031;28;20452;-71
2021/11/09 13:54:14;;;;;;;3.50;2.00;;;10.70;99.90;;;;;;4954934;28;20506;-71
2021/11/09 13:56:41;;;;;;;2.97;2.27;;;10.70;99.90;;;;;;4955412;28;20568;-71
2021/11/09 13:59:11;;;;;;;8.40;2.07;;;10.70;99.90;;;;;;4955074;28;20420;-71
2021/11/09 14:01:50;;;;;;;6.03;2.00;;;10.70;99.90;;;;;;4955012;28;20478;-71
2021/11/09 14:04:53;;;;;;;4.00;2.53;;;10.70;99.90;;;;;;4954788;28;20467;-71
2021/11/09 14:18:30;;;;;;;5.50;3.37;;;10.60;99.90;;;;;;4954877;29;21000;-71
2021/11/09 14:21:03;;;;;;;7.47;2.87;;;10.60;99.90;;;;;;4954764;29;20529;-70
2021/11/09 14:23:32;;;;;;;3.33;1.93;;;10.60;99.90;;;;;;4953867;28;20195;-70
2021/11/09 14:25:59;;;;;;;4.83;2.03;;;10.60;99.90;;;;;;4954752;28;20942;-71
2021/11/09 14:28:38;;;;;;;2.30;1.73;;;10.50;99.90;;;;;;4954158;28;20447;-71
2021/11/09 14:31:26;;;;;;;5.20;2.60;;;10.50;99.90;;;;;;4954194;28;20434;-71
2021/11/09 14:34:08;;;;;;;4.43;2.20;;;10.50;99.90;;;;;;4954365;28;20493;-71
2021/11/09 14:36:35;;;;;;;8.33;1.60;;;10.40;99.90;;;;;;4954392;28;20440;-71
2021/11/09 14:39:11;;;;;;;5.03;2.03;;;10.40;99.90;;;;;;4954323;28;20445;-71
2021/11/09 14:42:03;;;;;;;10.10;2.93;;;10.30;99.90;;;;;;4954062;29;20438;-71
2021/11/09 14:44:49;;;;;;;7.47;2.33;;;10.40;99.90;;;;;;4954155;28;20990;-70
2021/11/09 14:47:19;;;;;;;2.27;2.10;;;10.40;99.90;;;;;;4954451;28;20457;-71
2021/11/09 14:49:55;;;;;;;6.10;2.27;;;10.30;99.90;;;;;;4954371;28;20426;-70
2021/11/09 14:52:22;;;;;;;5.23;2.13;;;10.30;99.90;;;;;;4953856;28;20466;-71
2021/11/09 14:54:50;;;;;;;11.60;3.30;;;10.20;99.90;;;;;;4954135;28;20433;-70
2021/11/09 14:57:16;;;;;;;6.60;2.90;;;10.20;99.90;;;;;;4954148;28;20424;-70
2021/11/09 15:00:07;;;;;;;3.57;3.00;;;10.20;99.90;;;;;;4953967;28;20434;-71
2021/11/09 15:02:32;;;;;;;3.60;2.10;;;10.10;99.90;;;;;;4953584;28;20547;-70
2021/11/09 15:04:58;;;;;;;7.47;2.20;;;10.10;99.90;;;;;;4953847;28;20495;-71
2021/11/09 15:07:37;;;;;;;5.70;2.10;;;10.00;99.90;;;;;;4953793;29;20202;-70
2021/11/09 15:10:20;;;;;;;5.50;1.97;;;10.00;99.90;;;;;;4954031;28;20576;-70
2021/11/09 15:29:10;;;;;;;15.07;6.90;;;9.60;99.90;;;;;;4953719;28;20428;-71
2021/11/09 15:31:45;;;;;;;19.83;4.93;;;9.50;99.90;;;;;;4968239;28;20527;-71
2021/11/09 15:36:55;;;;;;;8.57;4.80;;;9.40;99.90;;;;;;4953024;28;20443;-70
2021/11/09 15:39:24;;;;;;;9.63;3.77;;;9.40;99.90;;;;;;4953551;28;20414;-70
2021/11/09 15:41:50;;;;;;;10.27;5.47;;;9.30;99.90;;;;;;4953417;28;20915;-70
2021/11/09 15:44:16;;;;;;;9.03;3.57;;;9.30;99.90;;;;;;4953151;29;20556;-71
2021/11/09 15:46:43;;;;;;;11.33;4.43;;;9.20;99.90;;;;;;4953248;28;20169;-71
2021/11/09 15:49:09;;;;;;;15.27;4.83;;;9.20;99.90;;;;;;4953348;28;20430;-71
2021/11/09 15:51:35;;;;;;;12.23;6.57;;;9.10;99.90;;;;;;4953131;28;20437;-71
2021/11/09 15:54:01;;;;;;;18.37;8.07;;;9.00;99.90;;;;;;4953202;28;20409;-71
2021/11/09 15:56:27;;;;;;;8.23;5.33;;;8.90;99.90;;;;;;4953069;28;20432;-70
2021/11/09 15:58:54;;;;;;;10.70;2.83;;;9.00;99.90;;;;;;4953344;29;20595;-71
2021/11/09 16:01:20;;;;;;;4.93;3.50;;;8.90;99.90;;;;;;4953285;28;20196;-71
2021/11/09 16:03:46;;;;;;;8.70;3.17;;;8.90;99.90;;;;;;4952785;28;20521;-70
2021/11/09 16:06:12;;;;;;;9.67;3.33;;;8.80;99.90;;;;;;4953282;28;20201;-71
2021/11/09 16:08:38;;;;;;;6.80;3.37;;;8.80;99.90;;;;;;4984596;28;20515;-70
2021/11/09 16:11:12;;;;;;;7.53;2.90;;;8.80;99.90;;;;;;4965615;28;20203;-72
2021/11/09 16:13:39;;;;;;;5.57;4.53;;;8.70;99.90;;;;;;4971953;28;20419;-72
2021/11/09 16:16:05;;;;;;;6.97;4.87;;;8.70;99.90;;;;;;4972114;28;20416;-72
2021/11/09 16:18:31;;;;;;;12.00;5.30;;;8.60;99.90;;;;;;4973121;28;20416;-73
2021/11/09 16:20:57;;;;;;;14.00;6.07;;;8.50;99.90;;;;;;4973057;28;20431;-72
2021/11/09 16:23:24;;;;;;;8.10;5.70;;;8.40;99.90;;;;;;4971802;28;20773;-73
2021/11/09 16:25:50;;;;;;;12.53;6.67;;;8.30;99.90;;;;;;4972304;28;20200;-73
2021/11/09 16:28:16;;;;;;;10.40;6.50;;;8.10;99.90;;;;;;4971177;28;20443;-73
2021/11/09 16:30:42;;;;;;;8.00;5.80;;;8.00;99.90;;;;;;4972119;28;20171;-72
2021/11/09 16:33:22;;;;;;;8.97;5.30;;;7.90;99.90;;;;;;4972234;28;20246;-72
2021/11/09 16:36:02;;;;;;;6.83;4.40;;;7.80;99.90;;;;;;4972254;28;20443;-72
2021/11/09 16:38:32;;;;;;;17.03;4.20;;;7.80;99.90;;;;;;4972074;28;20392;-73
2021/11/09 16:41:02;;;;;;;7.83;3.70;;;7.70;99.90;;;;;;4971896;28;20432;-72
2021/11/09 16:43:36;;;;;;;6.03;3.50;;;7.70;99.90;;;;;;4971662;28;20759;-72
2021/11/09 16:48:50;;;;;;;9.10;5.07;;;7.50;99.90;;;;;;4975881;28;20409;-72
2021/11/09 16:51:28;;;;;;;8.10;4.07;;;7.50;99.90;;;;;;4974467;28;20436;-73
2021/11/09 16:54:05;;;;;;;10.23;5.47;;;7.30;99.90;;;;;;4975460;28;20424;-73
2021/11/09 16:56:42;;;;;;;4.80;3.80;;;7.10;99.90;;;;;;4975601;28;20841;-74
2021/11/09 17:02:17;;;;;;;8.43;5.90;;;6.70;99.90;;;;;;4975563;28;20464;-72
2021/11/09 17:10:27;;;;;;;12.33;6.10;;;6.20;99.90;;;;;;4975359;28;20423;-72
2021/11/09 17:14:23;;;;;;;22.30;6.57;;;6.00;99.90;;;;;;4974896;28;20512;-72
2021/11/09 18:21:54;;;;;;;9.60;3.87;;;4.00;99.90;;;;;;4961565;28;20528;-72
2021/11/09 18:24:20;;;;;;;9.90;4.20;;;4.00;99.90;;;;;;4972427;28;20574;-72
2021/11/09 18:26:52;;;;;;;12.93;4.63;;;3.90;99.90;;;;;;4973729;28;20816;-72
2021/11/09 18:29:19;;;;;;;10.33;4.80;;;3.90;99.90;;;;;;4973905;28;20216;-70
2021/11/09 18:31:45;;;;;;;11.60;4.43;;;3.90;99.90;;;;;;4963666;28;20976;-72
2021/11/09 18:34:11;;;;;;;10.40;4.90;;;3.90;99.90;;;;;;4970827;28;20473;-73
2021/11/09 18:36:36;;;;;;;18.07;6.87;;;3.80;99.90;;;;;;4973233;28;20213;-72
2021/11/09 18:39:04;;;;;;;9.73;5.47;;;3.80;99.90;;;;;;4973551;28;20226;-72
2021/11/09 18:41:30;;;;;;;14.93;6.70;;;3.80;99.90;;;;;;4972394;28;20302;-71
2021/11/09 18:43:56;;;;;;;9.27;5.50;;;3.70;99.90;;;;;;4961623;28;20489;-72
2021/11/09 18:46:24;;;;;;;16.40;6.07;;;3.60;99.90;;;;;;4972625;28;20200;-72
2021/11/09 18:48:55;;;;;;;10.00;7.30;;;3.70;99.90;;;;;;4973039;28;20706;-72
2021/11/09 18:51:21;;;;;;;15.10;6.80;;;3.60;99.90;;;;;;4973252;28;20978;-72
2021/11/09 18:53:47;;;;;;;10.97;6.20;;;3.60;99.90;;;;;;4960514;28;20534;-71
2021/11/09 18:56:13;;;;;;;8.03;5.70;;;3.60;99.90;;;;;;4973066;28;20462;-71
2021/11/09 18:58:38;;;;;;;6.80;5.53;;;3.50;99.90;;;;;;4972280;28;20703;-71
2021/11/09 19:01:04;;;;;;;7.80;4.70;;;3.40;99.90;;;;;;4971667;28;20215;-71
2021/11/09 19:03:30;;;;;;;7.83;6.10;;;3.40;99.90;;;;;;4968654;28;20208;-72
2021/11/09 19:05:55;;;;;;;4.70;4.20;;;3.40;99.90;;;;;;4964482;28;20220;-72
2021/11/09 19:08:21;;;;;;;7.97;4.93;;;3.30;99.90;;;;;;4972417;28;20302;-71
2021/11/09 19:10:47;;;;;;;5.93;3.90;;;3.30;99.90;;;;;;4970922;28;20209;-79
2021/11/09 19:13:12;;;;;;;11.03;4.60;;;3.20;99.90;;;;;;4972312;28;20233;-72
2021/11/09 19:15:38;;;;;;;9.50;4.07;;;3.20;99.90;;;;;;4960100;28;20261;-72
2021/11/09 19:18:03;;;;;;;7.97;5.20;;;3.10;99.90;;;;;;4972548;28;20215;-73
2021/11/09 19:20:29;;;;;;;8.57;5.20;;;3.10;99.90;;;;;;4972147;28;20235;-73
2021/11/09 19:22:55;;;;;;;12.50;5.63;;;3.10;99.90;;;;;;4972198;28;20233;-72
2021/11/09 19:25:21;;;;;;;11.10;6.07;;;3.10;99.90;;;;;;4967416;28;20281;-73
2021/11/09 19:27:47;;;;;;;11.17;7.40;;;3.10;99.90;;;;;;4965449;28;20216;-71
2021/11/09 19:30:17;;;;;;;13.60;7.03;;;3.10;99.90;;;;;;4972393;28;20826;-72
2021/11/09 19:32:43;;;;;;;16.20;8.10;;;3.10;99.90;;;;;;4971838;28;20527;-73
2021/11/09 19:35:09;;;;;;;9.77;7.90;;;3.10;99.90;;;;;;4972181;28;20552;-73
2021/11/09 19:37:35;;;;;;;6.07;5.17;;;3.10;99.90;;;;;;4960166;28;20209;-73
2021/11/09 19:40:03;;;;;;;9.33;4.87;;;3.00;99.90;;;;;;4971556;28;20981;-73
2021/11/09 19:45:04;;;;;;;7.60;4.43;;;2.90;99.90;;;;;;4972076;28;20484;-72
2021/11/09 19:47:32;;;;;;;6.10;3.87;;;2.90;99.90;;;;;;4963070;28;20467;-72
2021/11/09 19:49:57;;;;;;;14.70;6.10;;;2.90;99.90;;;;;;4969084;28;20468;-72
2021/11/09 19:52:23;;;;;;;6.27;4.83;;;2.90;99.90;;;;;;4971829;28;20471;-72
2021/11/09 19:54:49;;;;;;;7.10;4.50;;;2.80;99.90;;;;;;4971808;28;20576;-72
2021/11/09 19:57:15;;;;;;;6.43;4.70;;;2.80;99.90;;;;;;4971985;28;20233;-72
2021/11/09 19:59:41;;;;;;;5.60;4.10;;;2.80;99.90;;;;;;4960004;28;20506;-73
2021/11/09 20:02:11;;;;;;;7.43;4.50;;;2.70;99.90;;;;;;4971820;28;20208;-72
2021/11/09 20:04:37;;;;;;;6.37;4.30;;;2.70;99.90;;;;;;4971651;28;20492;-72